Time;durP1;ratioP1;P1;durP2;ratioP2;P2;SDS_P1;SDS_P2;PMS_P1;PMS_P2;Temp;Humidity;BMP_temperature;BMP_pressure;BME280_temperature;BME280_humidity;BME280_pressure;Samples;Min_cycle;Max_cycle;Signal;HPM_P1;HPM_P2
2022/03/24 00:00:23;;;;;;;26.63;16.95;;;154.10;2048.00;;;;;;4973159;28;20624;-57
2022/03/24 00:02:49;;;;;;;26.48;16.25;;;154.20;2048.00;;;;;;4973087;28;20031;-58
2022/03/24 00:05:15;;;;;;;29.17;18.77;;;154.20;2048.00;;;;;;4972540;28;20043;-56
2022/03/24 00:07:41;;;;;;;31.98;18.65;;;154.30;2048.00;;;;;;4972850;28;20070;-58
2022/03/24 00:10:07;;;;;;;29.65;17.20;;;154.30;2048.00;;;;;;4972750;28;20046;-58
2022/03/24 00:12:37;;;;;;;26.00;15.98;;;154.10;2073.60;;;;;;4972659;28;20031;-57
2022/03/24 00:15:04;;;;;;;29.27;16.73;;;154.00;2099.20;;;;;;4972635;28;20354;-57
2022/03/24 00:17:31;;;;;;;32.67;19.52;;;153.90;2099.20;;;;;;4972570;28;20023;-57
2022/03/24 00:19:57;;;;;;;28.20;17.88;;;153.80;2124.80;;;;;;4972656;28;20026;-58
2022/03/24 00:22:23;;;;;;;26.83;18.63;;;153.80;2150.40;;;;;;4972620;28;20019;-56
2022/03/24 00:24:52;;;;;;;27.73;16.70;;;153.70;2176.00;;;;;;4972596;28;20557;-56
2022/03/24 00:27:18;;;;;;;28.92;18.42;;;153.70;2150.40;;;;;;4972570;28;20039;-57
2022/03/24 00:29:45;;;;;;;29.08;15.63;;;153.80;2150.40;;;;;;4972283;28;20105;-58
2022/03/24 00:32:11;;;;;;;24.38;16.00;;;153.90;2124.80;;;;;;4972774;28;20055;-59
2022/03/24 00:34:37;;;;;;;30.33;14.38;;;154.00;2099.20;;;;;;4972140;28;20062;-57
2022/03/24 00:37:03;;;;;;;28.02;17.65;;;154.00;2099.20;;;;;;4972458;28;20077;-58
2022/03/24 00:39:33;;;;;;;29.27;16.48;;;153.80;2150.40;;;;;;4973462;28;20505;-58
2022/03/24 00:42:00;;;;;;;27.02;16.55;;;153.70;2176.00;;;;;;4973951;28;20035;-57
2022/03/24 00:44:27;;;;;;;37.30;20.05;;;153.70;2201.60;;;;;;4973720;28;20097;-58
2022/03/24 00:46:53;;;;;;;35.75;18.70;;;153.70;2176.00;;;;;;4973376;28;20043;-57
2022/03/24 00:49:20;;;;;;;25.33;14.93;;;153.80;2150.40;;;;;;4973920;28;20473;-58
2022/03/24 00:51:46;;;;;;;33.50;14.68;;;153.70;2176.00;;;;;;4973627;28;20026;-58
2022/03/24 00:54:12;;;;;;;28.50;15.38;;;153.70;2176.00;;;;;;4973374;28;20034;-56
2022/03/24 00:56:37;;;;;;;24.02;14.75;;;153.60;2201.60;;;;;;4973650;28;20027;-58
2022/03/24 00:59:03;;;;;;;23.95;13.95;;;153.60;2201.60;;;;;;4973218;28;20035;-58
2022/03/24 01:01:29;;;;;;;21.10;12.90;;;153.60;2201.60;;;;;;4973705;28;20073;-57
2022/03/24 01:03:55;;;;;;;22.42;12.05;;;153.60;2227.20;;;;;;4973272;28;20062;-57
2022/03/24 01:06:25;;;;;;;20.50;13.13;;;153.60;2227.20;;;;;;4973580;28;20034;-57
2022/03/24 01:08:50;;;;;;;24.40;12.52;;;153.60;2227.20;;;;;;4973542;28;20038;-59
2022/03/24 01:11:17;;;;;;;31.83;16.83;;;128.90;2227.20;;;;;;4973199;28;20026;-58
2022/03/24 01:13:44;;;;;;;22.35;14.60;;;128.90;2227.20;;;;;;4972867;28;20114;-58
2022/03/24 01:16:10;;;;;;;30.20;15.30;;;128.90;2227.20;;;;;;4973137;28;20042;-58
2022/03/24 01:18:37;;;;;;;27.10;13.75;;;128.90;2227.20;;;;;;4973064;28;20433;-58
2022/03/24 01:21:05;;;;;;;30.27;14.55;;;128.90;2252.80;;;;;;4973179;28;20385;-58
2022/03/24 01:23:32;;;;;;;21.67;12.38;;;128.80;2252.80;;;;;;4973348;28;20030;-59
2022/03/24 01:26:00;;;;;;;25.88;16.15;;;128.80;2252.80;;;;;;4973393;28;20388;-58
2022/03/24 01:28:27;;;;;;;15.27;9.68;;;128.90;2252.80;;;;;;4972877;28;20509;-58
2022/03/24 01:30:53;;;;;;;17.90;10.82;;;153.70;2201.60;;;;;;4972928;28;20027;-58
2022/03/24 01:33:19;;;;;;;21.05;11.38;;;153.80;2176.00;;;;;;4973215;28;20038;-58
2022/03/24 01:35:45;;;;;;;21.42;11.50;;;153.80;2201.60;;;;;;4972542;28;20042;-58
2022/03/24 01:38:11;;;;;;;18.58;10.52;;;153.60;2201.60;;;;;;4972956;28;20574;-59
2022/03/24 01:40:37;;;;;;;21.38;11.02;;;153.60;2227.20;;;;;;4972699;28;20039;-58
2022/03/24 01:43:02;;;;;;;19.65;10.60;;;153.60;2227.20;;;;;;4972419;28;20039;-58
2022/03/24 01:45:28;;;;;;;17.10;10.27;;;153.60;2227.20;;;;;;4972817;28;20054;-58
2022/03/24 01:47:54;;;;;;;19.65;11.73;;;153.80;2201.60;;;;;;4972171;28;20071;-58
2022/03/24 01:50:21;;;;;;;25.38;11.55;;;153.70;2227.20;;;;;;4972819;28;20078;-58
2022/03/24 01:52:47;;;;;;;21.55;11.57;;;153.60;2227.20;;;;;;4972473;28;20041;-57
2022/03/24 01:55:13;;;;;;;21.35;11.50;;;153.60;2227.20;;;;;;4972297;28;20109;-58
2022/03/24 01:57:41;;;;;;;22.00;13.23;;;128.90;2227.20;;;;;;4972457;28;20058;-57
2022/03/24 02:00:08;;;;;;;21.02;12.63;;;128.80;2252.80;;;;;;4972392;28;20425;-57
2022/03/24 02:02:34;;;;;;;29.40;13.77;;;128.60;2252.80;;;;;;4972231;28;20046;-58
2022/03/24 02:05:00;;;;;;;19.77;10.95;;;128.70;2252.80;;;;;;4972356;28;20039;-58
2022/03/24 02:07:26;;;;;;;21.80;10.50;;;128.70;2252.80;;;;;;4971998;28;20046;-57
2022/03/24 02:09:52;;;;;;;16.77;10.80;;;128.70;2252.80;;;;;;4972012;28;20022;-56
2022/03/24 02:12:18;;;;;;;20.63;11.38;;;128.80;2252.80;;;;;;4972108;28;20030;-58
2022/03/24 02:14:44;;;;;;;19.63;10.10;;;128.90;2252.80;;;;;;4971638;28;20125;-58
2022/03/24 02:17:10;;;;;;;23.52;10.55;;;128.90;2252.80;;;;;;4972276;28;20066;-57
2022/03/24 02:19:38;;;;;;;23.13;11.80;;;128.70;2252.80;;;;;;4971865;28;20030;-58
2022/03/24 02:22:14;;;;;;;19.15;9.70;;;128.70;2252.80;;;;;;4972059;28;20045;-57
2022/03/24 02:24:40;;;;;;;20.45;9.43;;;128.60;2252.80;;;;;;4972039;28;20023;-57
2022/03/24 02:27:06;;;;;;;15.60;9.73;;;128.70;2252.80;;;;;;4971823;28;20039;-57
2022/03/24 02:29:32;;;;;;;19.83;9.25;;;128.70;2252.80;;;;;;4972088;28;20707;-58
2022/03/24 02:31:58;;;;;;;22.02;9.43;;;128.70;2252.80;;;;;;4972295;28;20533;-58
2022/03/24 02:37:28;;;;;;;18.20;10.23;;;128.80;2252.80;;;;;;4931254;29;20140;-58
2022/03/24 02:39:56;;;;;;;16.35;9.27;;;128.70;2252.80;;;;;;4931197;29;20036;-57
2022/03/24 02:42:25;;;;;;;20.63;10.65;;;128.60;2252.80;;;;;;4931159;29;20504;-59
2022/03/24 02:45:03;;;;;;;17.77;8.75;;;128.70;2252.80;;;;;;4931199;29;20043;-58
2022/03/24 02:47:29;;;;;;;14.73;9.20;;;128.60;2252.80;;;;;;4931024;29;20084;-58
2022/03/24 02:49:56;;;;;;;18.23;9.43;;;128.50;2252.80;;;;;;4931020;29;20059;-58
2022/03/24 02:52:22;;;;;;;17.48;10.18;;;128.50;2252.80;;;;;;4930951;29;20546;-58
2022/03/24 02:54:48;;;;;;;19.80;10.55;;;128.50;2252.80;;;;;;4931253;29;20063;-58
2022/03/24 02:57:14;;;;;;;22.08;10.02;;;128.60;2252.80;;;;;;4930977;29;20431;-59
2022/03/24 02:59:41;;;;;;;19.65;10.27;;;128.80;2252.80;;;;;;4931117;29;20155;-58
2022/03/24 03:02:13;;;;;;;23.88;12.35;;;128.80;2252.80;;;;;;4930609;29;20043;-58
2022/03/24 03:04:40;;;;;;;19.02;9.80;;;128.80;2252.80;;;;;;4930713;29;20399;-58
2022/03/24 03:07:07;;;;;;;27.17;12.68;;;128.90;2252.80;;;;;;4930683;29;20043;-58
2022/03/24 03:09:35;;;;;;;19.20;11.43;;;128.90;2227.20;;;;;;4930996;29;20497;-57
2022/03/24 03:12:01;;;;;;;19.95;9.95;;;153.60;2227.20;;;;;;4959504;28;20043;-56
2022/03/24 03:14:30;;;;;;;15.60;9.23;;;153.60;2201.60;;;;;;4971420;28;20118;-58
2022/03/24 03:16:58;;;;;;;16.35;8.38;;;153.60;2201.60;;;;;;4971027;28;20066;-57
2022/03/24 03:19:24;;;;;;;15.15;8.68;;;153.60;2227.20;;;;;;4971122;28;20388;-58
2022/03/24 03:21:50;;;;;;;19.88;8.77;;;128.90;2227.20;;;;;;4971516;28;20035;-56
2022/03/24 03:24:17;;;;;;;18.98;8.73;;;128.90;2252.80;;;;;;4971328;28;20126;-58
2022/03/24 03:26:43;;;;;;;17.15;8.23;;;128.80;2252.80;;;;;;4971611;28;20039;-57
2022/03/24 03:29:10;;;;;;;14.68;8.82;;;128.70;2252.80;;;;;;4975179;28;20049;-57
2022/03/24 03:31:36;;;;;;;14.23;8.25;;;128.70;2252.80;;;;;;4974891;28;20394;-57
2022/03/24 03:34:07;;;;;;;15.10;8.18;;;128.70;2252.80;;;;;;4974931;28;20026;-57
2022/03/24 03:36:34;;;;;;;16.95;9.40;;;128.80;2252.80;;;;;;4974949;28;20485;-56
2022/03/24 03:38:59;;;;;;;21.45;10.30;;;128.70;2252.80;;;;;;4975296;28;20362;-57
2022/03/24 03:41:27;;;;;;;20.15;8.88;;;128.70;2252.80;;;;;;4974839;28;20042;-58
2022/03/24 03:43:53;;;;;;;20.70;13.85;;;128.70;2252.80;;;;;;4974859;28;20455;-57
2022/03/24 03:46:19;;;;;;;14.77;9.48;;;128.40;2252.80;;;;;;4974840;28;20019;-57
2022/03/24 03:48:46;;;;;;;17.95;8.77;;;128.40;2252.80;;;;;;4974463;28;20033;-58
2022/03/24 03:51:11;;;;;;;16.13;9.13;;;128.50;2252.80;;;;;;4974748;28;20033;-58
2022/03/24 03:53:37;;;;;;;16.50;8.98;;;128.40;2252.80;;;;;;4974753;28;20030;-58
2022/03/24 03:56:05;;;;;;;20.52;10.57;;;128.40;2252.80;;;;;;4974425;28;20110;-57
2022/03/24 03:58:31;;;;;;;14.90;8.70;;;128.30;2252.80;;;;;;4974839;28;20477;-58
2022/03/24 04:00:57;;;;;;;17.63;8.95;;;128.10;2252.80;;;;;;4974489;28;20027;-57
2022/03/24 04:03:32;;;;;;;17.63;10.30;;;128.20;2252.80;;;;;;4974154;28;20055;-58
2022/03/24 04:06:00;;;;;;;21.15;10.45;;;128.20;2252.80;;;;;;4974440;28;20513;-58
2022/03/24 04:08:29;;;;;;;23.50;14.55;;;128.30;2252.80;;;;;;4974369;28;20453;-59
2022/03/24 04:10:55;;;;;;;17.50;9.70;;;128.30;2252.80;;;;;;4974444;28;20023;-58
2022/03/24 04:13:22;;;;;;;17.92;14.20;;;128.40;2252.80;;;;;;4974352;28;20508;-56
2022/03/24 04:15:49;;;;;;;16.48;10.82;;;128.40;2252.80;;;;;;4974150;28;20027;-58
2022/03/24 04:18:16;;;;;;;13.90;8.18;;;128.30;2252.80;;;;;;4974078;28;20035;-59
2022/03/24 04:20:42;;;;;;;16.15;7.85;;;128.20;2252.80;;;;;;4974770;28;20354;-58
2022/03/24 04:23:09;;;;;;;16.20;7.15;;;128.00;2252.80;;;;;;4974538;28;20146;-59
2022/03/24 04:25:36;;;;;;;16.00;7.40;;;128.00;2252.80;;;;;;4973896;28;20027;-57
2022/03/24 04:28:03;;;;;;;18.15;7.53;;;128.00;2252.80;;;;;;4974237;28;20038;-58
2022/03/24 04:30:30;;;;;;;13.80;7.28;;;128.10;2252.80;;;;;;4953707;28;20031;-57
2022/03/24 04:32:56;;;;;;;20.33;10.02;;;128.10;2252.80;;;;;;4973945;28;20123;-55
2022/03/24 04:35:22;;;;;;;20.27;11.77;;;128.20;2252.80;;;;;;4973972;28;20576;-56
2022/03/24 04:37:49;;;;;;;16.15;8.57;;;128.20;2252.80;;;;;;4973673;28;20536;-55
2022/03/24 04:40:16;;;;;;;17.70;10.30;;;128.20;2252.80;;;;;;4973681;28;20029;-55
2022/03/24 04:42:47;;;;;;;19.33;9.43;;;128.30;2252.80;;;;;;4973781;28;20065;-55
2022/03/24 04:45:13;;;;;;;13.60;7.38;;;128.40;2252.80;;;;;;4973726;28;20053;-56
2022/03/24 04:47:40;;;;;;;14.50;10.43;;;128.40;2252.80;;;;;;4973391;28;20035;-55
2022/03/24 04:50:07;;;;;;;14.32;8.38;;;128.50;2252.80;;;;;;4973410;28;20034;-54
2022/03/24 04:52:32;;;;;;;16.85;7.30;;;128.60;2252.80;;;;;;4973684;28;20050;-56
2022/03/24 04:55:01;;;;;;;15.75;7.60;;;128.60;2252.80;;;;;;4973710;28;20583;-55
2022/03/24 04:57:28;;;;;;;15.20;9.30;;;128.60;2252.80;;;;;;4973349;28;20037;-55
2022/03/24 04:59:55;;;;;;;18.33;8.48;;;128.60;2252.80;;;;;;4973477;28;20030;-55
2022/03/24 05:02:20;;;;;;;16.48;7.80;;;128.60;2252.80;;;;;;4973727;28;20026;-56
2022/03/24 05:04:46;;;;;;;16.75;8.65;;;128.70;2252.80;;;;;;4973159;28;20106;-57
2022/03/24 05:07:13;;;;;;;18.83;8.55;;;128.70;2252.80;;;;;;4973356;28;20030;-58
2022/03/24 05:09:39;;;;;;;11.27;8.23;;;128.80;2252.80;;;;;;4973357;28;20027;-56
2022/03/24 05:12:06;;;;;;;14.07;8.55;;;128.90;2252.80;;;;;;4973103;28;20038;-57
2022/03/24 05:14:33;;;;;;;14.02;7.68;;;153.70;2252.80;;;;;;4973404;28;20473;-59
2022/03/24 05:17:00;;;;;;;17.65;8.75;;;153.80;2252.80;;;;;;4973209;28;20034;-58
2022/03/24 05:19:26;;;;;;;14.48;9.73;;;154.00;2227.20;;;;;;4972935;28;20078;-53
2022/03/24 05:21:52;;;;;;;15.75;8.98;;;154.20;2176.00;;;;;;4973207;28;20034;-58
2022/03/24 05:24:18;;;;;;;15.15;8.95;;;154.30;2176.00;;;;;;4973379;28;20023;-56
2022/03/24 05:26:44;;;;;;;13.27;8.95;;;154.20;2176.00;;;;;;4972669;28;20035;-57
2022/03/24 05:29:10;;;;;;;20.25;8.40;;;154.30;2176.00;;;;;;4973075;28;20465;-54
2022/03/24 05:31:36;;;;;;;18.23;9.55;;;154.30;2176.00;;;;;;4972794;28;20035;-56
2022/03/24 05:34:02;;;;;;;19.00;8.40;;;154.50;2150.40;;;;;;4972849;28;20023;-55
2022/03/24 05:36:28;;;;;;;18.20;9.25;;;179.30;2099.20;;;;;;4973115;28;20058;-56
2022/03/24 05:38:54;;;;;;;18.60;9.75;;;179.40;2073.60;;;;;;4972724;28;20062;-55
2022/03/24 05:41:20;;;;;;;15.73;8.70;;;179.40;2073.60;;;;;;4972895;28;20608;-58
2022/03/24 05:44:02;;;;;;;19.80;9.35;;;179.50;2073.60;;;;;;4972481;28;20038;-55
2022/03/24 05:46:31;;;;;;;15.60;8.65;;;179.60;2073.60;;;;;;4972299;28;20034;-58
2022/03/24 05:48:57;;;;;;;17.02;9.45;;;180.10;1996.80;;;;;;4972139;28;20556;-57
2022/03/24 05:51:23;;;;;;;20.80;9.60;;;230.70;1843.20;;;;;;4972168;28;20034;-56
2022/03/24 05:53:49;;;;;;;20.85;13.35;;;281.70;1689.60;;;;;;4972839;28;20102;-55
2022/03/24 05:56:16;;;;;;;33.22;19.20;;;307.90;1561.60;;;;;;4972323;28;20109;-54
2022/03/24 05:58:42;;;;;;;47.08;29.25;;;333.40;1510.40;;;;;;4972572;28;20386;-58
2022/03/24 06:01:09;;;;;;;51.85;33.00;;;359.00;1408.00;;;;;;4972221;28;20035;-55
2022/03/24 06:03:36;;;;;;;47.40;28.08;;;384.40;1356.80;;;;;;4971999;28;20053;-56
2022/03/24 06:06:06;;;;;;;31.15;20.45;;;410.20;1305.60;;;;;;4972293;28;20058;-58
2022/03/24 06:08:33;;;;;;;28.67;19.98;;;461.30;1228.80;;;;;;4972406;28;20385;-55
2022/03/24 06:11:04;;;;;;;26.52;18.50;;;487.20;1126.40;;;;;;4972327;28;20030;-57
2022/03/24 06:13:30;;;;;;;18.45;15.88;;;512.10;1100.80;;;;;;4972074;28;20085;-57
2022/03/24 06:16:01;;;;;;;23.58;17.08;;;538.50;1049.60;;;;;;4972035;28;20027;-57
2022/03/24 06:18:27;;;;;;;22.27;16.85;;;563.60;1024.00;;;;;;4971920;28;20428;-56
2022/03/24 06:20:53;;;;;;;28.55;18.55;;;564.10;998.40;;;;;;4972058;28;20034;-57
2022/03/24 06:23:19;;;;;;;25.60;17.58;;;589.60;947.20;;;;;;4972099;28;20022;-58
2022/03/24 06:25:44;;;;;;;29.52;17.98;;;615.00;896.00;;;;;;4971890;28;20045;-57
2022/03/24 06:28:11;;;;;;;21.10;15.57;;;640.40;870.40;;;;;;4971924;28;20039;-67
2022/03/24 06:30:37;;;;;;;20.10;14.73;;;665.70;870.40;;;;;;4971830;28;20481;-57
2022/03/24 06:33:03;;;;;;;19.38;15.00;;;666.20;844.80;;;;;;4971672;28;20034;-58
2022/03/24 06:35:29;;;;;;;16.63;14.68;;;691.50;793.60;;;;;;4971617;28;20109;-65
2022/03/24 06:37:55;;;;;;;17.55;13.50;;;691.70;793.60;;;;;;4971412;28;20031;-61
2022/03/24 06:40:21;;;;;;;114.55;30.73;;;692.10;793.60;;;;;;4971742;28;20023;-58
2022/03/24 06:42:47;;;;;;;32.35;15.50;;;691.30;819.20;;;;;;4971474;28;20037;-58
2022/03/24 06:45:13;;;;;;;23.38;18.33;;;666.50;819.20;;;;;;4971517;28;20109;-58
2022/03/24 06:47:41;;;;;;;21.20;18.58;;;666.00;819.20;;;;;;4971442;28;20070;-58
2022/03/24 06:50:10;;;;;;;19.90;17.55;;;665.70;844.80;;;;;;4971119;28;20023;-57
2022/03/24 06:52:36;;;;;;;19.80;16.92;;;666.00;844.80;;;;;;4971270;28;20031;-59
2022/03/24 06:55:02;;;;;;;18.63;16.70;;;640.90;844.80;;;;;;4971399;28;20019;-59
2022/03/24 06:57:29;;;;;;;23.05;18.98;;;665.90;844.80;;;;;;4971772;28;20054;-64
2022/03/24 06:59:55;;;;;;;26.52;21.55;;;691.30;819.20;;;;;;4971419;28;20413;-60
2022/03/24 07:02:20;;;;;;;22.35;18.98;;;691.90;793.60;;;;;;4971309;28;20090;-58
2022/03/24 07:04:47;;;;;;;28.95;20.33;;;716.90;819.20;;;;;;4971169;28;20051;-58
2022/03/24 07:07:13;;;;;;;22.60;18.48;;;742.40;819.20;;;;;;4971272;28;20078;-58
2022/03/24 07:09:39;;;;;;;19.98;17.88;;;717.70;793.60;;;;;;4971443;28;20027;-58
2022/03/24 07:12:05;;;;;;;23.88;19.70;;;742.80;819.20;;;;;;4971070;28;20556;-58
2022/03/24 07:14:31;;;;;;;26.13;23.17;;;768.40;768.00;;;;;;4971339;28;20098;-58
2022/03/24 07:16:57;;;;;;;26.23;21.75;;;819.20;768.00;;;;;;4971027;28;20043;-58
2022/03/24 07:19:22;;;;;;;23.27;19.35;;;820.10;716.80;;;;;;4971149;28;20109;-62
2022/03/24 07:21:48;;;;;;;25.00;20.75;;;819.80;742.40;;;;;;4971466;28;20039;-58
2022/03/24 07:24:14;;;;;;;20.90;18.67;;;819.80;716.80;;;;;;4971059;28;20023;-58
2022/03/24 07:26:40;;;;;;;19.52;17.67;;;819.90;716.80;;;;;;4971092;28;20507;-57
2022/03/24 07:29:06;;;;;;;20.48;18.48;;;844.90;716.80;;;;;;4970907;28;20117;-58
2022/03/24 07:31:32;;;;;;;20.17;18.25;;;845.70;716.80;;;;;;4970907;28;20027;-57
2022/03/24 07:33:59;;;;;;;19.25;17.50;;;870.50;691.20;;;;;;4961997;28;20496;-57
2022/03/24 07:36:25;;;;;;;16.98;14.45;;;845.70;691.20;;;;;;4970874;28;20035;-58
2022/03/24 07:38:55;;;;;;;18.55;14.45;;;870.90;665.60;;;;;;4971205;28;20038;-59
2022/03/24 07:41:21;;;;;;;19.50;14.50;;;896.60;640.00;;;;;;4971336;28;20027;-58
2022/03/24 07:43:48;;;;;;;15.45;14.00;;;896.20;665.60;;;;;;4971013;28;20082;-58
2022/03/24 07:46:13;;;;;;;17.77;13.30;;;870.80;691.20;;;;;;4970874;28;20058;-59
2022/03/24 07:48:39;;;;;;;15.95;14.52;;;870.90;691.20;;;;;;4970816;28;20179;-58
2022/03/24 07:51:06;;;;;;;16.48;13.93;;;870.40;691.20;;;;;;4970707;28;20050;-58
2022/03/24 07:53:43;;;;;;;17.75;14.02;;;870.70;691.20;;;;;;4971170;28;20482;-59
2022/03/24 07:56:09;;;;;;;15.88;14.23;;;871.30;640.00;;;;;;4970924;28;20046;-59
2022/03/24 07:58:36;;;;;;;15.98;14.48;;;870.70;665.60;;;;;;4970710;28;20022;-59
2022/03/24 08:01:02;;;;;;;16.83;14.15;;;870.60;691.20;;;;;;4970886;28;20062;-59
2022/03/24 08:03:28;;;;;;;14.57;13.25;;;871.30;640.00;;;;;;4970633;28;20117;-58
2022/03/24 08:05:54;;;;;;;13.82;12.55;;;896.40;640.00;;;;;;4970814;28;20429;-59
2022/03/24 08:08:20;;;;;;;18.52;12.60;;;896.10;614.40;;;;;;4970913;28;20035;-58
2022/03/24 08:10:48;;;;;;;15.93;13.63;;;921.80;614.40;;;;;;4970637;28;20030;-59
2022/03/24 08:13:16;;;;;;;15.10;13.50;;;921.70;640.00;;;;;;4971721;28;20034;-58
2022/03/24 08:15:43;;;;;;;15.63;14.10;;;922.00;614.40;;;;;;4974326;28;20390;-58
2022/03/24 08:18:10;;;;;;;17.83;12.77;;;947.60;563.20;;;;;;4974392;28;20027;-58
2022/03/24 08:20:37;;;;;;;13.20;12.00;;;922.30;614.40;;;;;;4973999;28;20113;-58
2022/03/24 08:23:04;;;;;;;12.63;10.07;;;947.20;563.20;;;;;;4974270;28;20023;-59
2022/03/24 08:25:30;;;;;;;10.95;9.80;;;922.30;537.60;;;;;;4973980;28;20022;-65
2022/03/24 08:27:56;;;;;;;12.25;10.95;;;921.70;563.20;;;;;;4973887;28;20520;-59
2022/03/24 08:30:23;;;;;;;17.05;13.13;;;921.70;563.20;;;;;;4974079;28;20058;-59
2022/03/24 08:32:49;;;;;;;12.55;11.35;;;922.10;563.20;;;;;;4974332;28;20030;-60
2022/03/24 08:35:15;;;;;;;13.35;11.60;;;947.80;512.00;;;;;;4973820;28;20382;-59
2022/03/24 08:37:41;;;;;;;14.48;10.82;;;947.70;512.00;;;;;;4974019;28;20034;-56
2022/03/24 08:40:07;;;;;;;15.90;10.57;;;896.90;537.60;;;;;;4973716;28;20042;-59
2022/03/24 08:42:38;;;;;;;16.90;11.60;;;922.10;537.60;;;;;;4973704;28;20035;-59
2022/03/24 08:45:10;;;;;;;15.45;13.70;;;896.80;563.20;;;;;;4973668;28;20153;-58
2022/03/24 08:47:36;;;;;;;13.15;11.20;;;922.00;563.20;;;;;;4973689;28;20058;-57
2022/03/24 08:50:03;;;;;;;14.80;11.45;;;921.90;563.20;;;;;;4973789;28;20022;-57
2022/03/24 08:52:28;;;;;;;12.23;10.50;;;922.10;537.60;;;;;;4960296;28;20031;-56
2022/03/24 08:54:54;;;;;;;13.60;12.27;;;922.00;537.60;;;;;;4954219;29;20038;-56
2022/03/24 08:57:27;;;;;;;16.30;14.20;;;896.90;512.00;;;;;;4954479;29;20058;-61
2022/03/24 09:00:02;;;;;;;15.93;13.75;;;871.20;537.60;;;;;;4954047;29;20426;-59
2022/03/24 09:02:28;;;;;;;14.52;10.38;;;870.60;537.60;;;;;;4954130;29;20031;-58
2022/03/24 09:04:55;;;;;;;11.40;8.27;;;845.30;563.20;;;;;;4953753;29;20405;-59
2022/03/24 09:07:22;;;;;;;10.68;7.90;;;819.30;588.80;;;;;;4953917;29;20497;-58
2022/03/24 09:09:47;;;;;;;14.65;9.18;;;768.50;588.80;;;;;;4954199;29;20114;-58
2022/03/24 09:12:13;;;;;;;12.15;8.00;;;717.30;640.00;;;;;;4953729;29;20032;-58
2022/03/24 09:14:40;;;;;;;16.27;8.48;;;666.50;640.00;;;;;;4953901;29;20359;-57
2022/03/24 09:17:07;;;;;;;14.75;8.18;;;640.60;716.80;;;;;;4953632;29;20106;-57
2022/03/24 09:19:33;;;;;;;15.30;8.18;;;615.20;742.40;;;;;;4953706;29;20019;-58
2022/03/24 09:22:00;;;;;;;16.73;8.65;;;614.80;742.40;;;;;;4953906;29;20034;-57
2022/03/24 09:24:27;;;;;;;14.38;8.77;;;614.80;742.40;;;;;;4952527;28;20054;-58
2022/03/24 09:26:53;;;;;;;12.77;9.30;;;614.80;742.40;;;;;;4953484;29;20470;-57
2022/03/24 09:29:19;;;;;;;21.08;9.30;;;614.60;742.40;;;;;;4953829;29;20058;-60
2022/03/24 09:31:47;;;;;;;10.93;8.32;;;589.70;742.40;;;;;;4953619;29;20102;-56
2022/03/24 09:34:13;;;;;;;13.13;7.30;;;614.40;742.40;;;;;;4953622;29;20446;-57
2022/03/24 09:36:40;;;;;;;12.93;7.65;;;589.50;742.40;;;;;;4953646;29;20031;-57
2022/03/24 09:39:07;;;;;;;16.15;8.27;;;589.30;768.00;;;;;;4953331;29;20035;-57
2022/03/24 09:41:35;;;;;;;13.25;8.77;;;589.50;742.40;;;;;;4953263;29;20020;-57
2022/03/24 09:44:02;;;;;;;13.68;8.48;;;589.10;768.00;;;;;;4953496;29;20491;-57
2022/03/24 09:46:28;;;;;;;18.40;14.25;;;588.90;768.00;;;;;;4953640;29;20023;-56
2022/03/24 09:48:55;;;;;;;15.75;8.48;;;588.80;768.00;;;;;;4953131;29;20023;-60
2022/03/24 09:51:26;;;;;;;15.13;8.30;;;589.00;768.00;;;;;;4953396;29;20046;-57
2022/03/24 09:53:52;;;;;;;9.93;7.50;;;589.00;768.00;;;;;;4953347;29;20143;-57
2022/03/24 09:56:19;;;;;;;10.02;7.18;;;588.80;768.00;;;;;;4953378;29;20174;-56
2022/03/24 09:58:47;;;;;;;14.15;8.75;;;564.10;742.40;;;;;;4953064;29;20041;-56
2022/03/24 10:01:13;;;;;;;13.88;7.43;;;564.10;742.40;;;;;;4953121;29;20039;-57
2022/03/24 10:03:59;;;;;;;12.50;8.18;;;563.80;768.00;;;;;;4953031;29;20046;-57
2022/03/24 10:06:25;;;;;;;13.07;8.00;;;564.00;768.00;;;;;;4952556;29;20426;-56
2022/03/24 10:08:51;;;;;;;20.27;12.88;;;564.00;768.00;;;;;;4953105;29;20082;-57
2022/03/24 10:11:16;;;;;;;15.30;10.32;;;563.90;768.00;;;;;;4952751;29;20082;-58
2022/03/24 10:13:51;;;;;;;16.52;10.35;;;563.90;742.40;;;;;;4952754;29;20034;-55
2022/03/24 10:16:40;;;;;;;13.60;7.82;;;563.70;768.00;;;;;;4952880;29;20031;-57
2022/03/24 10:19:27;;;;;;;13.88;9.05;;;563.70;793.60;;;;;;4952679;29;20038;-56
2022/03/24 10:21:53;;;;;;;15.18;8.18;;;563.70;793.60;;;;;;4952980;29;20102;-57
2022/03/24 10:24:21;;;;;;;16.33;8.27;;;563.40;768.00;;;;;;4952770;29;20470;-56
2022/03/24 10:26:50;;;;;;;17.25;7.75;;;563.20;793.60;;;;;;4952612;29;20500;-57
2022/03/24 10:29:21;;;;;;;11.48;6.32;;;563.20;793.60;;;;;;4952680;29;20066;-56
2022/03/24 10:31:56;;;;;;;12.30;8.60;;;563.20;768.00;;;;;;4952395;29;20031;-56
2022/03/24 10:34:34;;;;;;;12.40;8.85;;;563.20;793.60;;;;;;4952605;29;20113;-56
2022/03/24 10:37:19;;;;;;;16.00;9.48;;;563.20;793.60;;;;;;4952401;28;20019;-56
2022/03/24 10:40:05;;;;;;;17.85;8.20;;;563.60;793.60;;;;;;4952454;29;20371;-60
2022/03/24 10:42:38;;;;;;;14.77;8.57;;;563.20;793.60;;;;;;4952496;29;20090;-60
2022/03/24 10:45:17;;;;;;;17.15;9.95;;;563.20;793.60;;;;;;4952369;29;20035;-55
2022/03/24 10:47:56;;;;;;;11.35;7.13;;;538.50;768.00;;;;;;4952122;29;20058;-57
2022/03/24 10:50:29;;;;;;;13.90;8.02;;;563.20;819.20;;;;;;4952477;29;20028;-58
2022/03/24 10:53:01;;;;;;;;;;;538.50;768.00;;;;;;4952445;29;20027;-57
2022/03/24 10:55:59;;;;;;;13.10;8.52;;;563.30;793.60;;;;;;4952317;29;19946;-56
2022/03/24 10:58:38;;;;;;;14.32;7.32;;;538.50;793.60;;;;;;4889687;29;20112;-56
2022/03/24 11:01:07;;;;;;;16.20;7.57;;;563.30;819.20;;;;;;4892967;29;20107;-58
2022/03/24 11:03:33;;;;;;;9.68;6.72;;;538.50;742.40;;;;;;4892566;29;20123;-57
2022/03/24 11:06:12;;;;;;;16.00;10.27;;;538.50;768.00;;;;;;4893020;29;20123;-57
2022/03/24 11:08:39;;;;;;;13.73;6.93;;;563.20;768.00;;;;;;4892885;29;20559;-56
2022/03/24 11:11:10;;;;;;;18.42;7.70;;;538.50;793.60;;;;;;4892827;29;20035;-56
2022/03/24 11:13:49;;;;;;;20.83;10.05;;;538.40;768.00;;;;;;4892680;29;20040;-57
2022/03/24 11:16:19;;;;;;;14.20;11.52;;;538.50;742.40;;;;;;4892809;29;20048;-57
2022/03/24 11:18:46;;;;;;;21.67;16.23;;;563.20;793.60;;;;;;4892610;29;20032;-56
2022/03/24 11:21:29;;;;;;;12.85;10.73;;;563.20;768.00;;;;;;4892897;29;20033;-56
2022/03/24 11:23:55;;;;;;;13.95;8.43;;;563.30;742.40;;;;;;4892865;29;20029;-56
2022/03/24 11:26:25;;;;;;;14.38;10.70;;;538.50;716.80;;;;;;4893131;29;20028;-56
2022/03/24 11:28:54;;;;;;;10.07;8.75;;;538.30;716.80;;;;;;4893069;29;20170;-62
2022/03/24 11:31:19;;;;;;;11.10;8.50;;;538.00;742.40;;;;;;4892985;29;20031;-57
2022/03/24 11:33:54;;;;;;;14.65;9.07;;;538.30;768.00;;;;;;4892723;29;20508;-56
2022/03/24 11:36:22;;;;;;;12.50;9.93;;;538.50;768.00;;;;;;4949243;29;20035;-56
2022/03/24 11:38:52;;;;;;;10.43;7.97;;;563.20;768.00;;;;;;4952032;29;20077;-56
2022/03/24 11:41:22;;;;;;;14.38;10.90;;;563.30;768.00;;;;;;4951980;29;20027;-57
2022/03/24 11:43:51;;;;;;;14.85;10.60;;;563.20;742.40;;;;;;4951842;29;20038;-57
2022/03/24 11:46:28;;;;;;;13.25;8.98;;;538.50;716.80;;;;;;4951797;29;20102;-56
2022/03/24 11:49:18;;;;;;;13.90;9.45;;;563.20;793.60;;;;;;4953904;28;20035;-59
2022/03/24 11:51:47;;;;;;;20.15;15.95;;;563.20;793.60;;;;;;4952722;29;20087;-59
2022/03/24 11:54:30;;;;;;;17.15;12.40;;;563.20;768.00;;;;;;4953779;29;20035;-57
2022/03/24 11:57:14;;;;;;;;;;;538.50;742.40;;;;;;4954260;29;20122;-60
2022/03/24 11:59:40;;;;;;;9.68;7.13;;;538.50;716.80;;;;;;4954078;29;20277;-57
2022/03/24 12:02:17;;;;;;;12.00;8.70;;;538.50;742.40;;;;;;4953503;29;20074;-57
2022/03/24 12:04:47;;;;;;;15.30;12.30;;;538.40;742.40;;;;;;4953267;29;20498;-57
2022/03/24 12:07:18;;;;;;;17.83;9.82;;;538.50;742.40;;;;;;4953131;29;20047;-57
2022/03/24 12:10:01;;;;;;;10.75;6.97;;;563.30;768.00;;;;;;4953616;29;20046;-61
2022/03/24 12:12:27;;;;;;;11.82;6.07;;;538.40;742.40;;;;;;4953328;29;20042;-57
2022/03/24 12:14:54;;;;;;;12.73;6.82;;;538.50;716.80;;;;;;4953362;29;20053;-59